sensor_id;sensor_type;location;lat;lon;timestamp;pressure;altitude;pressure_sealevel;temperature
43292;BMP280;28754;47.700;7.924;2023-08-24T00:01:11;91716.31;;;25.47
43292;BMP280;28754;47.700;7.924;2023-08-24T00:04:00;91708.72;;;25.42
43292;BMP280;28754;47.700;7.924;2023-08-24T00:06:47;91714.22;;;25.37
43292;BMP280;28754;47.700;7.924;2023-08-24T00:09:34;91703.03;;;25.40
43292;BMP280;28754;47.700;7.924;2023-08-24T00:12:21;91697.38;;;25.38
43292;BMP280;28754;47.700;7.924;2023-08-24T00:15:11;91696.34;;;25.42
43292;BMP280;28754;47.700;7.924;2023-08-24T00:18:03;91695.16;;;25.40
43292;BMP280;28754;47.700;7.924;2023-08-24T00:20:50;91699.97;;;25.38
43292;BMP280;28754;47.700;7.924;2023-08-24T00:23:37;91698.47;;;25.37
43292;BMP280;28754;47.700;7.924;2023-08-24T00:26:25;91694.41;;;25.39
43292;BMP280;28754;47.700;7.924;2023-08-24T00:29:12;91703.47;;;25.42
43292;BMP280;28754;47.700;7.924;2023-08-24T00:31:59;91694.09;;;25.41
43292;BMP280;28754;47.700;7.924;2023-08-24T00:34:46;91701.84;;;25.37
43292;BMP280;28754;47.700;7.924;2023-08-24T00:37:33;91699.22;;;25.37
43292;BMP280;28754;47.700;7.924;2023-08-24T00:40:21;91685.38;;;25.37
43292;BMP280;28754;47.700;7.924;2023-08-24T00:43:07;91682.66;;;25.33
43292;BMP280;28754;47.700;7.924;2023-08-24T00:45:59;91680.72;;;25.30
43292;BMP280;28754;47.700;7.924;2023-08-24T00:48:47;91673.88;;;25.26
43292;BMP280;28754;47.700;7.924;2023-08-24T00:51:34;91673.75;;;25.22
43292;BMP280;28754;47.700;7.924;2023-08-24T00:54:21;91667.34;;;25.20
43292;BMP280;28754;47.700;7.924;2023-08-24T00:57:08;91663.78;;;25.13
43292;BMP280;28754;47.700;7.924;2023-08-24T01:00:03;91659.03;;;25.03
43292;BMP280;28754;47.700;7.924;2023-08-24T01:02:52;91656.75;;;25.01
43292;BMP280;28754;47.700;7.924;2023-08-24T01:05:38;91661.06;;;24.94
43292;BMP280;28754;47.700;7.924;2023-08-24T01:08:25;91665.44;;;24.90
43292;BMP280;28754;47.700;7.924;2023-08-24T01:17:13;91660.06;;;24.86
43292;BMP280;28754;47.700;7.924;2023-08-24T01:20:03;91662.94;;;24.82
43292;BMP280;28754;47.700;7.924;2023-08-24T01:26:14;91662.94;;;24.82
43292;BMP280;28754;47.700;7.924;2023-08-24T01:29:04;91650.94;;;24.81
43292;BMP280;28754;47.700;7.924;2023-08-24T01:31:51;91642.69;;;24.79
43292;BMP280;28754;47.700;7.924;2023-08-24T01:34:38;91634.28;;;24.73
43292;BMP280;28754;47.700;7.924;2023-08-24T01:37:26;91623.38;;;24.71
43292;BMP280;28754;47.700;7.924;2023-08-24T01:40:26;91622.53;;;24.67
43292;BMP280;28754;47.700;7.924;2023-08-24T01:43:20;91630.31;;;24.64
43292;BMP280;28754;47.700;7.924;2023-08-24T01:46:08;91632.50;;;24.62
43292;BMP280;28754;47.700;7.924;2023-08-24T01:48:58;91622.03;;;24.62
43292;BMP280;28754;47.700;7.924;2023-08-24T01:51:46;91626.47;;;24.61
43292;BMP280;28754;47.700;7.924;2023-08-24T01:54:34;91624.22;;;24.60
43292;BMP280;28754;47.700;7.924;2023-08-24T01:57:20;91608.41;;;24.56
43292;BMP280;28754;47.700;7.924;2023-08-24T02:00:07;91615.19;;;24.57
43292;BMP280;28754;47.700;7.924;2023-08-24T02:03:00;91609.94;;;24.57
43292;BMP280;28754;47.700;7.924;2023-08-24T02:05:47;91591.19;;;24.55
43292;BMP280;28754;47.700;7.924;2023-08-24T02:08:34;91599.03;;;24.55
43292;BMP280;28754;47.700;7.924;2023-08-24T02:11:23;91591.50;;;24.54
43292;BMP280;28754;47.700;7.924;2023-08-24T02:14:10;91585.94;;;24.55
43292;BMP280;28754;47.700;7.924;2023-08-24T02:16:58;91594.44;;;24.52
43292;BMP280;28754;47.700;7.924;2023-08-24T02:19:44;91584.34;;;24.51
43292;BMP280;28754;47.700;7.924;2023-08-24T02:22:31;91588.88;;;24.54
43292;BMP280;28754;47.700;7.924;2023-08-24T02:25:18;91591.84;;;24.52
43292;BMP280;28754;47.700;7.924;2023-08-24T02:28:05;91582.78;;;24.50
43292;BMP280;28754;47.700;7.924;2023-08-24T02:30:51;91583.91;;;24.49
43292;BMP280;28754;47.700;7.924;2023-08-24T02:33:38;91573.66;;;24.44
43292;BMP280;28754;47.700;7.924;2023-08-24T02:36:25;91575.94;;;24.46
43292;BMP280;28754;47.700;7.924;2023-08-24T02:39:11;91579.69;;;24.45
43292;BMP280;28754;47.700;7.924;2023-08-24T02:41:58;91581.94;;;24.46
43292;BMP280;28754;47.700;7.924;2023-08-24T02:44:45;91582.38;;;24.48
43292;BMP280;28754;47.700;7.924;2023-08-24T02:47:32;91576.47;;;24.51
43292;BMP280;28754;47.700;7.924;2023-08-24T02:50:19;91576.91;;;24.53
43292;BMP280;28754;47.700;7.924;2023-08-24T02:53:06;91570.25;;;24.55
43292;BMP280;28754;47.700;7.924;2023-08-24T02:55:54;91577.66;;;24.53
43292;BMP280;28754;47.700;7.924;2023-08-24T02:58:41;91578.31;;;24.50
43292;BMP280;28754;47.700;7.924;2023-08-24T03:01:28;91573.88;;;24.51
43292;BMP280;28754;47.700;7.924;2023-08-24T03:04:14;91567.41;;;24.48
43292;BMP280;28754;47.700;7.924;2023-08-24T03:07:01;91561.41;;;24.48
43292;BMP280;28754;47.700;7.924;2023-08-24T03:09:48;91553.50;;;24.45
43292;BMP280;28754;47.700;7.924;2023-08-24T03:12:34;91557.31;;;24.47
43292;BMP280;28754;47.700;7.924;2023-08-24T03:15:21;91557.47;;;24.54
43292;BMP280;28754;47.700;7.924;2023-08-24T03:18:12;91553.41;;;24.56
43292;BMP280;28754;47.700;7.924;2023-08-24T03:21:00;91548.88;;;24.53
43292;BMP280;28754;47.700;7.924;2023-08-24T03:23:47;91558.06;;;24.48
43292;BMP280;28754;47.700;7.924;2023-08-24T03:26:33;91550.03;;;24.41
43292;BMP280;28754;47.700;7.924;2023-08-24T03:29:20;91547.72;;;24.39
43292;BMP280;28754;47.700;7.924;2023-08-24T03:32:07;91533.78;;;24.35
43292;BMP280;28754;47.700;7.924;2023-08-24T03:34:59;91531.16;;;24.35
43292;BMP280;28754;47.700;7.924;2023-08-24T03:37:46;91546.88;;;24.35
43292;BMP280;28754;47.700;7.924;2023-08-24T03:40:33;91542.75;;;24.34
43292;BMP280;28754;47.700;7.924;2023-08-24T03:43:20;91543.50;;;24.35
43292;BMP280;28754;47.700;7.924;2023-08-24T03:46:06;91546.56;;;24.37
43292;BMP280;28754;47.700;7.924;2023-08-24T03:48:53;91542.81;;;24.38
43292;BMP280;28754;47.700;7.924;2023-08-24T03:51:40;91544.25;;;24.35
43292;BMP280;28754;47.700;7.924;2023-08-24T03:54:26;91549.16;;;24.37
43292;BMP280;28754;47.700;7.924;2023-08-24T03:57:14;91530.84;;;24.37
43292;BMP280;28754;47.700;7.924;2023-08-24T04:00:02;91541.06;;;24.42
43292;BMP280;28754;47.700;7.924;2023-08-24T04:03:00;91538.13;;;24.43
43292;BMP280;28754;47.700;7.924;2023-08-24T04:05:47;91535.16;;;24.45
43292;BMP280;28754;47.700;7.924;2023-08-24T04:08:34;91537.00;;;24.44
43292;BMP280;28754;47.700;7.924;2023-08-24T04:11:22;91531.78;;;24.44
43292;BMP280;28754;47.700;7.924;2023-08-24T04:14:08;91539.41;;;24.49
43292;BMP280;28754;47.700;7.924;2023-08-24T04:16:55;91540.91;;;24.50
43292;BMP280;28754;47.700;7.924;2023-08-24T04:19:42;91538.03;;;24.55
43292;BMP280;28754;47.700;7.924;2023-08-24T04:22:29;91547.00;;;24.54
43292;BMP280;28754;47.700;7.924;2023-08-24T04:25:15;91537.22;;;24.51
43292;BMP280;28754;47.700;7.924;2023-08-24T04:28:02;91546.25;;;24.53
43292;BMP280;28754;47.700;7.924;2023-08-24T04:30:56;91559.34;;;24.53
43292;BMP280;28754;47.700;7.924;2023-08-24T04:33:43;91544.28;;;24.50
43292;BMP280;28754;47.700;7.924;2023-08-24T04:36:30;91548.75;;;24.50
43292;BMP280;28754;47.700;7.924;2023-08-24T04:39:17;91543.53;;;24.50
43292;BMP280;28754;47.700;7.924;2023-08-24T04:42:05;91545.38;;;24.49
43292;BMP280;28754;47.700;7.924;2023-08-24T04:44:52;91536.69;;;24.46
43292;BMP280;28754;47.700;7.924;2023-08-24T04:47:39;91545.22;;;24.43
43292;BMP280;28754;47.700;7.924;2023-08-24T04:50:25;91546.22;;;24.38
43292;BMP280;28754;47.700;7.924;2023-08-24T04:53:16;91536.50;;;24.39
43292;BMP280;28754;47.700;7.924;2023-08-24T04:56:03;91544.38;;;24.39
43292;BMP280;28754;47.700;7.924;2023-08-24T04:58:54;91539.63;;;24.44
43292;BMP280;28754;47.700;7.924;2023-08-24T05:01:43;91537.09;;;24.48
43292;BMP280;28754;47.700;7.924;2023-08-24T05:04:29;91541.34;;;24.52
43292;BMP280;28754;47.700;7.924;2023-08-24T05:07:16;91538.47;;;24.57
43292;BMP280;28754;47.700;7.924;2023-08-24T05:10:04;91537.88;;;24.63
43292;BMP280;28754;47.700;7.924;2023-08-24T05:12:51;91541.34;;;24.67
43292;BMP280;28754;47.700;7.924;2023-08-24T05:15:38;91524.97;;;24.70
43292;BMP280;28754;47.700;7.924;2023-08-24T05:18:24;91543.38;;;24.74
43292;BMP280;28754;47.700;7.924;2023-08-24T05:21:11;91540.75;;;24.74
43292;BMP280;28754;47.700;7.924;2023-08-24T05:23:58;91545.25;;;24.73
43292;BMP280;28754;47.700;7.924;2023-08-24T05:26:44;91551.22;;;24.74
43292;BMP280;28754;47.700;7.924;2023-08-24T05:29:31;91551.81;;;24.82
43292;BMP280;28754;47.700;7.924;2023-08-24T05:32:18;91548.19;;;24.87
43292;BMP280;28754;47.700;7.924;2023-08-24T05:35:08;91542.00;;;24.91
43292;BMP280;28754;47.700;7.924;2023-08-24T05:37:55;91551.88;;;24.98
43292;BMP280;28754;47.700;7.924;2023-08-24T05:40:43;91553.56;;;25.06
43292;BMP280;28754;47.700;7.924;2023-08-24T05:43:30;91541.72;;;25.12
43292;BMP280;28754;47.700;7.924;2023-08-24T05:46:16;91550.75;;;25.14
43292;BMP280;28754;47.700;7.924;2023-08-24T05:49:03;91551.59;;;25.18
43292;BMP280;28754;47.700;7.924;2023-08-24T05:51:51;91545.66;;;25.21
43292;BMP280;28754;47.700;7.924;2023-08-24T05:54:38;91555.50;;;25.24
43292;BMP280;28754;47.700;7.924;2023-08-24T05:57:25;91551.75;;;25.25
43292;BMP280;28754;47.700;7.924;2023-08-24T06:00:13;91553.28;;;25.26
43292;BMP280;28754;47.700;7.924;2023-08-24T06:03:01;91551.91;;;25.32
43292;BMP280;28754;47.700;7.924;2023-08-24T06:05:49;91556.56;;;25.38
43292;BMP280;28754;47.700;7.924;2023-08-24T06:08:35;91565.34;;;25.46
43292;BMP280;28754;47.700;7.924;2023-08-24T06:11:22;91570.31;;;25.51
43292;BMP280;28754;47.700;7.924;2023-08-24T06:14:09;91570.88;;;25.56
43292;BMP280;28754;47.700;7.924;2023-08-24T06:16:56;91556.72;;;25.60
43292;BMP280;28754;47.700;7.924;2023-08-24T06:19:43;91561.53;;;25.58
43292;BMP280;28754;47.700;7.924;2023-08-24T06:22:29;91567.69;;;25.51
43292;BMP280;28754;47.700;7.924;2023-08-24T06:25:16;91560.72;;;25.54
43292;BMP280;28754;47.700;7.924;2023-08-24T06:28:03;91557.06;;;25.59
43292;BMP280;28754;47.700;7.924;2023-08-24T06:30:50;91552.56;;;25.59
43292;BMP280;28754;47.700;7.924;2023-08-24T06:33:38;91560.19;;;25.64
43292;BMP280;28754;47.700;7.924;2023-08-24T06:36:25;91573.88;;;25.73
43292;BMP280;28754;47.700;7.924;2023-08-24T06:39:12;91557.28;;;25.69
43292;BMP280;28754;47.700;7.924;2023-08-24T06:41:59;91568.63;;;25.73
43292;BMP280;28754;47.700;7.924;2023-08-24T06:44:47;91567.66;;;25.81
43292;BMP280;28754;47.700;7.924;2023-08-24T06:47:37;91564.91;;;25.93
43292;BMP280;28754;47.700;7.924;2023-08-24T06:50:23;91562.09;;;26.01
43292;BMP280;28754;47.700;7.924;2023-08-24T06:53:10;91562.34;;;26.15
43292;BMP280;28754;47.700;7.924;2023-08-24T06:55:57;91565.63;;;26.27
43292;BMP280;28754;47.700;7.924;2023-08-24T06:58:45;91565.09;;;26.37
43292;BMP280;28754;47.700;7.924;2023-08-24T07:01:32;91562.59;;;26.44
43292;BMP280;28754;47.700;7.924;2023-08-24T07:04:18;91561.88;;;26.47
43292;BMP280;28754;47.700;7.924;2023-08-24T07:07:05;91556.63;;;26.47
43292;BMP280;28754;47.700;7.924;2023-08-24T07:09:52;91556.94;;;26.42
43292;BMP280;28754;47.700;7.924;2023-08-24T07:12:39;91563.28;;;26.41
43292;BMP280;28754;47.700;7.924;2023-08-24T07:15:27;91562.59;;;26.44
43292;BMP280;28754;47.700;7.924;2023-08-24T07:18:13;91545.38;;;26.47
43292;BMP280;28754;47.700;7.924;2023-08-24T07:21:00;91544.69;;;26.50
43292;BMP280;28754;47.700;7.924;2023-08-24T07:23:47;91537.69;;;26.57
43292;BMP280;28754;47.700;7.924;2023-08-24T07:26:33;91532.63;;;26.67
43292;BMP280;28754;47.700;7.924;2023-08-24T07:29:21;91532.81;;;26.78
43292;BMP280;28754;47.700;7.924;2023-08-24T07:32:08;91519.84;;;26.88
43292;BMP280;28754;47.700;7.924;2023-08-24T07:34:54;91526.84;;;27.03
43292;BMP280;28754;47.700;7.924;2023-08-24T07:37:41;91522.53;;;27.14
43292;BMP280;28754;47.700;7.924;2023-08-24T07:40:28;91528.66;;;27.21
43292;BMP280;28754;47.700;7.924;2023-08-24T07:43:14;91531.81;;;27.30
43292;BMP280;28754;47.700;7.924;2023-08-24T07:46:01;91535.78;;;27.43
43292;BMP280;28754;47.700;7.924;2023-08-24T07:48:48;91547.13;;;27.47
43292;BMP280;28754;47.700;7.924;2023-08-24T07:51:34;91543.38;;;27.48
43292;BMP280;28754;47.700;7.924;2023-08-24T07:54:21;91532.19;;;27.54
43292;BMP280;28754;47.700;7.924;2023-08-24T07:57:08;91545.09;;;27.62
43292;BMP280;28754;47.700;7.924;2023-08-24T07:59:54;91536.09;;;27.63
43292;BMP280;28754;47.700;7.924;2023-08-24T08:02:41;91548.22;;;27.71
43292;BMP280;28754;47.700;7.924;2023-08-24T08:05:28;91557.31;;;27.77
43292;BMP280;28754;47.700;7.924;2023-08-24T08:08:15;91540.53;;;27.89
43292;BMP280;28754;47.700;7.924;2023-08-24T08:11:02;91547.09;;;27.98
43292;BMP280;28754;47.700;7.924;2023-08-24T08:13:49;91545.31;;;28.05
43292;BMP280;28754;47.700;7.924;2023-08-24T08:16:35;91541.19;;;28.08
43292;BMP280;28754;47.700;7.924;2023-08-24T08:19:23;91539.03;;;28.13
43292;BMP280;28754;47.700;7.924;2023-08-24T08:22:15;91545.84;;;28.18
43292;BMP280;28754;47.700;7.924;2023-08-24T08:25:02;91538.41;;;28.23
43292;BMP280;28754;47.700;7.924;2023-08-24T08:27:50;91540.75;;;28.32
43292;BMP280;28754;47.700;7.924;2023-08-24T08:30:36;91535.56;;;28.38
43292;BMP280;28754;47.700;7.924;2023-08-24T08:33:23;91547.59;;;28.39
43292;BMP280;28754;47.700;7.924;2023-08-24T08:36:10;91546.91;;;28.42
43292;BMP280;28754;47.700;7.924;2023-08-24T08:38:58;91546.16;;;28.45
43292;BMP280;28754;47.700;7.924;2023-08-24T08:41:46;91544.00;;;28.54
43292;BMP280;28754;47.700;7.924;2023-08-24T08:44:33;91546.44;;;28.66
43292;BMP280;28754;47.700;7.924;2023-08-24T08:47:21;91543.88;;;28.73
43292;BMP280;28754;47.700;7.924;2023-08-24T08:50:09;91550.34;;;28.79
43292;BMP280;28754;47.700;7.924;2023-08-24T08:52:56;91541.34;;;28.87
43292;BMP280;28754;47.700;7.924;2023-08-24T08:55:45;91548.59;;;28.97
43292;BMP280;28754;47.700;7.924;2023-08-24T08:58:42;91547.56;;;29.04
43292;BMP280;28754;47.700;7.924;2023-08-24T09:01:30;91540.41;;;29.08
43292;BMP280;28754;47.700;7.924;2023-08-24T09:04:17;91548.44;;;29.15
43292;BMP280;28754;47.700;7.924;2023-08-24T09:07:04;91544.34;;;29.25
43292;BMP280;28754;47.700;7.924;2023-08-24T09:09:56;91534.28;;;29.37
43292;BMP280;28754;47.700;7.924;2023-08-24T09:12:43;91531.34;;;29.49
43292;BMP280;28754;47.700;7.924;2023-08-24T09:15:35;91545.00;;;29.61
43292;BMP280;28754;47.700;7.924;2023-08-24T09:18:38;91536.38;;;29.64
43292;BMP280;28754;47.700;7.924;2023-08-24T09:21:25;91532.25;;;29.67
43292;BMP280;28754;47.700;7.924;2023-08-24T09:24:11;91534.47;;;29.65
43292;BMP280;28754;47.700;7.924;2023-08-24T09:27:00;91530.72;;;29.66
43292;BMP280;28754;47.700;7.924;2023-08-24T09:29:51;91531.53;;;29.70
43292;BMP280;28754;47.700;7.924;2023-08-24T09:32:39;91537.19;;;29.72
43292;BMP280;28754;47.700;7.924;2023-08-24T09:35:36;91531.13;;;29.68
43292;BMP280;28754;47.700;7.924;2023-08-24T09:38:24;91525.50;;;29.69
43292;BMP280;28754;47.700;7.924;2023-08-24T09:41:10;91530.78;;;29.72
43292;BMP280;28754;47.700;7.924;2023-08-24T09:44:04;91525.91;;;29.78
43292;BMP280;28754;47.700;7.924;2023-08-24T09:46:50;91517.97;;;29.74
43292;BMP280;28754;47.700;7.924;2023-08-24T09:49:38;91525.19;;;29.84
43292;BMP280;28754;47.700;7.924;2023-08-24T09:52:32;91512.03;;;29.91
43292;BMP280;28754;47.700;7.924;2023-08-24T09:55:20;91509.84;;;30.07
43292;BMP280;28754;47.700;7.924;2023-08-24T09:58:09;91517.81;;;30.21
43292;BMP280;28754;47.700;7.924;2023-08-24T10:00:57;91517.09;;;30.24
43292;BMP280;28754;47.700;7.924;2023-08-24T10:03:44;91497.50;;;30.25
43292;BMP280;28754;47.700;7.924;2023-08-24T10:06:34;91500.13;;;30.25
43292;BMP280;28754;47.700;7.924;2023-08-24T10:09:31;91496.31;;;30.19
43292;BMP280;28754;47.700;7.924;2023-08-24T10:12:27;91489.13;;;30.16
43292;BMP280;28754;47.700;7.924;2023-08-24T10:15:17;91486.47;;;30.12
43292;BMP280;28754;47.700;7.924;2023-08-24T10:18:05;91485.00;;;30.18
43292;BMP280;28754;47.700;7.924;2023-08-24T10:20:56;91481.59;;;30.21
43292;BMP280;28754;47.700;7.924;2023-08-24T10:23:45;91479.41;;;30.27
43292;BMP280;28754;47.700;7.924;2023-08-24T10:26:33;91480.16;;;30.34
43292;BMP280;28754;47.700;7.924;2023-08-24T10:29:20;91475.66;;;30.38
43292;BMP280;28754;47.700;7.924;2023-08-24T10:32:08;91482.06;;;30.47
43292;BMP280;28754;47.700;7.924;2023-08-24T10:34:55;91481.72;;;30.52
43292;BMP280;28754;47.700;7.924;2023-08-24T10:37:44;91486.63;;;30.43
43292;BMP280;28754;47.700;7.924;2023-08-24T10:40:37;91479.78;;;30.32
43292;BMP280;28754;47.700;7.924;2023-08-24T10:43:34;91490.00;;;30.37
43292;BMP280;28754;47.700;7.924;2023-08-24T10:46:21;91490.38;;;30.49
43292;BMP280;28754;47.700;7.924;2023-08-24T10:49:08;91477.56;;;30.55
43292;BMP280;28754;47.700;7.924;2023-08-24T10:51:55;91479.84;;;30.60
43292;BMP280;28754;47.700;7.924;2023-08-24T10:54:47;91476.84;;;30.61
43292;BMP280;28754;47.700;7.924;2023-08-24T10:57:37;91479.13;;;30.63
43292;BMP280;28754;47.700;7.924;2023-08-24T11:00:29;91472.69;;;30.67
43292;BMP280;28754;47.700;7.924;2023-08-24T11:03:31;91466.28;;;30.68
43292;BMP280;28754;47.700;7.924;2023-08-24T11:06:20;91476.09;;;30.75
43292;BMP280;28754;47.700;7.924;2023-08-24T11:09:09;91471.97;;;30.74
43292;BMP280;28754;47.700;7.924;2023-08-24T11:12:03;91468.94;;;30.75
43292;BMP280;28754;47.700;7.924;2023-08-24T11:14:52;91462.88;;;30.75
43292;BMP280;28754;47.700;7.924;2023-08-24T11:17:45;91465.53;;;30.75
43292;BMP280;28754;47.700;7.924;2023-08-24T11:20:32;91461.00;;;30.75
43292;BMP280;28754;47.700;7.924;2023-08-24T11:23:21;91471.59;;;30.85
43292;BMP280;28754;47.700;7.924;2023-08-24T11:26:08;91464.84;;;30.95
43292;BMP280;28754;47.700;7.924;2023-08-24T11:28:55;91465.94;;;31.01
43292;BMP280;28754;47.700;7.924;2023-08-24T11:31:44;91449.69;;;30.99
43292;BMP280;28754;47.700;7.924;2023-08-24T11:34:31;91457.66;;;31.06
43292;BMP280;28754;47.700;7.924;2023-08-24T11:37:19;91458.03;;;31.14
43292;BMP280;28754;47.700;7.924;2023-08-24T11:40:16;91458.38;;;31.23
43292;BMP280;28754;47.700;7.924;2023-08-24T11:43:04;91458.03;;;31.32
43292;BMP280;28754;47.700;7.924;2023-08-24T11:45:51;91464.06;;;31.46
43292;BMP280;28754;47.700;7.924;2023-08-24T11:48:38;91461.03;;;31.51
43292;BMP280;28754;47.700;7.924;2023-08-24T11:51:26;91448.13;;;31.67
43292;BMP280;28754;47.700;7.924;2023-08-24T11:54:12;91447.72;;;31.79
43292;BMP280;28754;47.700;7.924;2023-08-24T11:56:59;91444.34;;;31.82
43292;BMP280;28754;47.700;7.924;2023-08-24T11:59:46;91441.69;;;31.85
43292;BMP280;28754;47.700;7.924;2023-08-24T12:02:33;91444.69;;;31.90
43292;BMP280;28754;47.700;7.924;2023-08-24T12:05:25;91445.84;;;31.86
43292;BMP280;28754;47.700;7.924;2023-08-24T12:08:12;91443.19;;;31.89
43292;BMP280;28754;47.700;7.924;2023-08-24T12:10:59;91430.66;;;31.97
43292;BMP280;28754;47.700;7.924;2023-08-24T12:13:49;91437.06;;;31.99
43292;BMP280;28754;47.700;7.924;2023-08-24T12:16:36;91431.44;;;31.97
43292;BMP280;28754;47.700;7.924;2023-08-24T12:19:23;91426.13;;;31.97
43292;BMP280;28754;47.700;7.924;2023-08-24T12:22:19;91421.56;;;32.01
43292;BMP280;28754;47.700;7.924;2023-08-24T12:25:06;91419.69;;;31.98
43292;BMP280;28754;47.700;7.924;2023-08-24T12:28:14;91417.81;;;31.95
43292;BMP280;28754;47.700;7.924;2023-08-24T12:31:04;91413.25;;;31.99
43292;BMP280;28754;47.700;7.924;2023-08-24T12:36:50;91407.91;;;32.10
43292;BMP280;28754;47.700;7.924;2023-08-24T12:39:40;91399.56;;;32.11
43292;BMP280;28754;47.700;7.924;2023-08-24T12:42:30;91396.50;;;32.19
43292;BMP280;28754;47.700;7.924;2023-08-24T12:45:16;91396.47;;;32.26
43292;BMP280;28754;47.700;7.924;2023-08-24T12:48:04;91384.72;;;32.27
43292;BMP280;28754;47.700;7.924;2023-08-24T12:50:51;91385.84;;;32.33
43292;BMP280;28754;47.700;7.924;2023-08-24T12:53:37;91378.63;;;32.41
43292;BMP280;28754;47.700;7.924;2023-08-24T12:56:24;91376.34;;;32.43
43292;BMP280;28754;47.700;7.924;2023-08-24T12:59:11;91374.44;;;32.43
43292;BMP280;28754;47.700;7.924;2023-08-24T13:01:58;91374.44;;;32.40
43292;BMP280;28754;47.700;7.924;2023-08-24T13:04:45;91364.28;;;32.31
43292;BMP280;28754;47.700;7.924;2023-08-24T13:07:31;91358.97;;;32.35
43292;BMP280;28754;47.700;7.924;2023-08-24T13:10:18;91347.97;;;32.36
43292;BMP280;28754;47.700;7.924;2023-08-24T13:13:05;91357.06;;;32.35
43292;BMP280;28754;47.700;7.924;2023-08-24T13:15:51;91354.03;;;32.37
43292;BMP280;28754;47.700;7.924;2023-08-24T13:18:38;91354.41;;;32.39
43292;BMP280;28754;47.700;7.924;2023-08-24T13:21:25;91350.59;;;32.40
43292;BMP280;28754;47.700;7.924;2023-08-24T13:24:13;91353.25;;;32.40
43292;BMP280;28754;47.700;7.924;2023-08-24T13:27:00;91346.38;;;32.46
43292;BMP280;28754;47.700;7.924;2023-08-24T13:29:46;91326.66;;;32.53
43292;BMP280;28754;47.700;7.924;2023-08-24T13:32:33;91322.00;;;32.64
43292;BMP280;28754;47.700;7.924;2023-08-24T13:35:21;91322.75;;;32.68
43292;BMP280;28754;47.700;7.924;2023-08-24T13:38:08;91318.94;;;32.69
43292;BMP280;28754;47.700;7.924;2023-08-24T13:40:55;91328.38;;;32.74
43292;BMP280;28754;47.700;7.924;2023-08-24T13:43:42;91309.00;;;32.80
43292;BMP280;28754;47.700;7.924;2023-08-24T13:46:29;91293.88;;;32.81
43292;BMP280;28754;47.700;7.924;2023-08-24T13:49:17;91305.19;;;32.85
43292;BMP280;28754;47.700;7.924;2023-08-24T13:52:04;91292.66;;;32.88
43292;BMP280;28754;47.700;7.924;2023-08-24T13:54:50;91286.53;;;32.95
43292;BMP280;28754;47.700;7.924;2023-08-24T13:57:37;91288.75;;;33.00
43292;BMP280;28754;47.700;7.924;2023-08-24T14:00:25;91287.59;;;33.01
43292;BMP280;28754;47.700;7.924;2023-08-24T14:03:12;91282.31;;;33.01
43292;BMP280;28754;47.700;7.924;2023-08-24T14:06:00;91289.88;;;33.02
43292;BMP280;28754;47.700;7.924;2023-08-24T14:08:47;91283.75;;;33.09
43292;BMP280;28754;47.700;7.924;2023-08-24T14:11:33;91282.50;;;33.17
43292;BMP280;28754;47.700;7.924;2023-08-24T14:14:20;91275.25;;;33.21
43292;BMP280;28754;47.700;7.924;2023-08-24T14:17:07;91269.84;;;33.34
43292;BMP280;28754;47.700;7.924;2023-08-24T14:19:56;91274.13;;;33.55
43292;BMP280;28754;47.700;7.924;2023-08-24T14:22:46;91263.34;;;33.68
43292;BMP280;28754;47.700;7.924;2023-08-24T14:25:35;91257.88;;;33.82
43292;BMP280;28754;47.700;7.924;2023-08-24T14:28:57;91257.84;;;33.86
43292;BMP280;28754;47.700;7.924;2023-08-24T14:31:54;91254.13;;;33.80
43292;BMP280;28754;47.700;7.924;2023-08-24T14:34:53;91246.66;;;33.68
43292;BMP280;28754;47.700;7.924;2023-08-24T14:37:43;91251.22;;;33.67
43292;BMP280;28754;47.700;7.924;2023-08-24T14:40:35;91256.03;;;33.76
43292;BMP280;28754;47.700;7.924;2023-08-24T14:43:22;91241.91;;;33.86
43292;BMP280;28754;47.700;7.924;2023-08-24T14:46:11;91254.97;;;33.99
43292;BMP280;28754;47.700;7.924;2023-08-24T14:48:58;91242.34;;;34.07
43292;BMP280;28754;47.700;7.924;2023-08-24T14:51:55;91237.72;;;34.11
43292;BMP280;28754;47.700;7.924;2023-08-24T14:54:53;91232.50;;;34.04
43292;BMP280;28754;47.700;7.924;2023-08-24T14:57:43;91237.47;;;34.02
43292;BMP280;28754;47.700;7.924;2023-08-24T15:00:51;91233.13;;;33.89
43292;BMP280;28754;47.700;7.924;2023-08-24T15:03:44;91243.50;;;33.80
43292;BMP280;28754;47.700;7.924;2023-08-24T15:06:30;91246.34;;;33.62
43292;BMP280;28754;47.700;7.924;2023-08-24T15:09:17;91244.94;;;33.55
43292;BMP280;28754;47.700;7.924;2023-08-24T15:12:04;91240.09;;;33.46
43292;BMP280;28754;47.700;7.924;2023-08-24T15:15:00;91251.44;;;33.50
43292;BMP280;28754;47.700;7.924;2023-08-24T15:17:47;91249.13;;;33.52
43292;BMP280;28754;47.700;7.924;2023-08-24T15:20:38;91257.09;;;33.52
43292;BMP280;28754;47.700;7.924;2023-08-24T15:23:30;91246.47;;;33.52
43292;BMP280;28754;47.700;7.924;2023-08-24T15:26:17;91248.06;;;33.46
43292;BMP280;28754;47.700;7.924;2023-08-24T15:32:03;91244.78;;;33.35
43292;BMP280;28754;47.700;7.924;2023-08-24T15:34:50;91234.69;;;33.23
43292;BMP280;28754;47.700;7.924;2023-08-24T15:37:37;91244.22;;;33.18
43292;BMP280;28754;47.700;7.924;2023-08-24T15:40:30;91247.38;;;33.06
43292;BMP280;28754;47.700;7.924;2023-08-24T15:43:21;91255.75;;;33.04
43292;BMP280;28754;47.700;7.924;2023-08-24T15:46:08;91249.72;;;33.00
43292;BMP280;28754;47.700;7.924;2023-08-24T15:48:55;91239.13;;;33.00
43292;BMP280;28754;47.700;7.924;2023-08-24T15:51:42;91240.59;;;33.01
43292;BMP280;28754;47.700;7.924;2023-08-24T15:54:29;91249.72;;;33.00
43292;BMP280;28754;47.700;7.924;2023-08-24T15:57:15;91248.94;;;33.00
43292;BMP280;28754;47.700;7.924;2023-08-24T16:00:04;91260.75;;;32.95
43292;BMP280;28754;47.700;7.924;2023-08-24T16:02:58;91261.94;;;32.91
43292;BMP280;28754;47.700;7.924;2023-08-24T16:05:45;91279.00;;;32.90
43292;BMP280;28754;47.700;7.924;2023-08-24T16:08:32;91291.53;;;32.89
43292;BMP280;28754;47.700;7.924;2023-08-24T16:11:20;91301.03;;;32.84
43292;BMP280;28754;47.700;7.924;2023-08-24T16:14:07;91291.97;;;32.78
43292;BMP280;28754;47.700;7.924;2023-08-24T16:16:57;91277.31;;;32.66
43292;BMP280;28754;47.700;7.924;2023-08-24T16:19:44;91289.09;;;32.58
43292;BMP280;28754;47.700;7.924;2023-08-24T16:22:31;91286.16;;;32.50
43292;BMP280;28754;47.700;7.924;2023-08-24T16:25:18;91263.13;;;32.40